sensor_id;sensor_type;location;lat;lon;timestamp;P1;durP1;ratioP1;P2;durP2;ratioP2
27758;SDS011;15148;48.972;12.794;2022-08-07T00:01:54;5.70;;;2.00;;
27758;SDS011;15148;48.972;12.794;2022-08-07T00:07:16;2.85;;;1.92;;
27758;SDS011;15148;48.972;12.794;2022-08-07T00:12:19;1.77;;;1.63;;
27758;SDS011;15148;48.972;12.794;2022-08-07T00:17:21;4.72;;;1.60;;
27758;SDS011;15148;48.972;12.794;2022-08-07T00:22:27;1.10;;;1.00;;
27758;SDS011;15148;48.972;12.794;2022-08-07T00:27:35;2.85;;;1.20;;
27758;SDS011;15148;48.972;12.794;2022-08-07T00:32:54;1.45;;;1.08;;
27758;SDS011;15148;48.972;12.794;2022-08-07T00:37:58;1.92;;;1.40;;
27758;SDS011;15148;48.972;12.794;2022-08-07T00:43:01;2.20;;;1.08;;
27758;SDS011;15148;48.972;12.794;2022-08-07T00:48:03;3.13;;;0.98;;
27758;SDS011;15148;48.972;12.794;2022-08-07T00:53:11;3.88;;;1.10;;
27758;SDS011;15148;48.972;12.794;2022-08-07T00:58:13;3.40;;;1.05;;
27758;SDS011;15148;48.972;12.794;2022-08-07T01:03:15;1.60;;;1.50;;
27758;SDS011;15148;48.972;12.794;2022-08-07T01:08:18;2.72;;;1.20;;
27758;SDS011;15148;48.972;12.794;2022-08-07T01:13:21;2.05;;;1.80;;
27758;SDS011;15148;48.972;12.794;2022-08-07T01:18:25;1.70;;;1.60;;
27758;SDS011;15148;48.972;12.794;2022-08-07T01:23:29;2.13;;;1.80;;
27758;SDS011;15148;48.972;12.794;2022-08-07T01:28:42;2.38;;;1.20;;
27758;SDS011;15148;48.972;12.794;2022-08-07T01:33:53;2.88;;;0.80;;
27758;SDS011;15148;48.972;12.794;2022-08-07T01:39:02;0.95;;;0.88;;
27758;SDS011;15148;48.972;12.794;2022-08-07T01:44:12;3.00;;;1.20;;
27758;SDS011;15148;48.972;12.794;2022-08-07T01:49:17;0.60;;;0.60;;
27758;SDS011;15148;48.972;12.794;2022-08-07T01:54:27;1.40;;;1.05;;
27758;SDS011;15148;48.972;12.794;2022-08-07T01:59:45;1.58;;;1.00;;
27758;SDS011;15148;48.972;12.794;2022-08-07T02:04:58;0.70;;;0.70;;
27758;SDS011;15148;48.972;12.794;2022-08-07T02:10:08;0.80;;;0.80;;
27758;SDS011;15148;48.972;12.794;2022-08-07T02:15:18;2.30;;;1.00;;
27758;SDS011;15148;48.972;12.794;2022-08-07T02:20:24;1.85;;;1.02;;
27758;SDS011;15148;48.972;12.794;2022-08-07T02:25:29;1.83;;;1.15;;
27758;SDS011;15148;48.972;12.794;2022-08-07T02:30:54;3.35;;;1.00;;
27758;SDS011;15148;48.972;12.794;2022-08-07T02:35:57;2.28;;;1.00;;
27758;SDS011;15148;48.972;12.794;2022-08-07T02:41:21;2.28;;;1.02;;
27758;SDS011;15148;48.972;12.794;2022-08-07T02:46:35;1.17;;;1.08;;
27758;SDS011;15148;48.972;12.794;2022-08-07T02:51:49;1.40;;;0.85;;
27758;SDS011;15148;48.972;12.794;2022-08-07T02:56:55;2.17;;;0.90;;
27758;SDS011;15148;48.972;12.794;2022-08-07T03:02:00;1.30;;;0.70;;
27758;SDS011;15148;48.972;12.794;2022-08-07T03:07:03;0.93;;;0.93;;
27758;SDS011;15148;48.972;12.794;2022-08-07T03:12:13;1.85;;;1.13;;
27758;SDS011;15148;48.972;12.794;2022-08-07T03:17:37;0.80;;;0.80;;
27758;SDS011;15148;48.972;12.794;2022-08-07T03:27:59;1.13;;;1.02;;
27758;SDS011;15148;48.972;12.794;2022-08-07T03:33:22;1.77;;;1.00;;
27758;SDS011;15148;48.972;12.794;2022-08-07T03:38:33;2.70;;;1.10;;
27758;SDS011;15148;48.972;12.794;2022-08-07T03:43:39;1.70;;;1.23;;
27758;SDS011;15148;48.972;12.794;2022-08-07T03:48:59;1.60;;;1.35;;
27758;SDS011;15148;48.972;12.794;2022-08-07T03:54:09;2.30;;;1.50;;
27758;SDS011;15148;48.972;12.794;2022-08-07T03:59:31;2.38;;;1.48;;
27758;SDS011;15148;48.972;12.794;2022-08-07T04:04:33;1.58;;;1.48;;
27758;SDS011;15148;48.972;12.794;2022-08-07T04:09:39;1.70;;;1.60;;
27758;SDS011;15148;48.972;12.794;2022-08-07T04:14:54;2.90;;;1.73;;
27758;SDS011;15148;48.972;12.794;2022-08-07T04:19:57;1.63;;;1.52;;
27758;SDS011;15148;48.972;12.794;2022-08-07T04:25:04;1.42;;;1.23;;
27758;SDS011;15148;48.972;12.794;2022-08-07T04:30:14;4.05;;;1.60;;
27758;SDS011;15148;48.972;12.794;2022-08-07T04:35:43;3.13;;;2.30;;
27758;SDS011;15148;48.972;12.794;2022-08-07T04:40:55;1.75;;;1.48;;
27758;SDS011;15148;48.972;12.794;2022-08-07T04:46:06;1.70;;;1.60;;
27758;SDS011;15148;48.972;12.794;2022-08-07T05:02:13;2.10;;;1.77;;
27758;SDS011;15148;48.972;12.794;2022-08-07T05:07:24;2.45;;;2.05;;
27758;SDS011;15148;48.972;12.794;2022-08-07T05:13:10;6.27;;;2.60;;
27758;SDS011;15148;48.972;12.794;2022-08-07T05:18:39;2.17;;;1.38;;
27758;SDS011;15148;48.972;12.794;2022-08-07T05:23:54;2.25;;;1.58;;
27758;SDS011;15148;48.972;12.794;2022-08-07T05:29:01;2.03;;;1.83;;
27758;SDS011;15148;48.972;12.794;2022-08-07T05:34:08;1.88;;;1.77;;
27758;SDS011;15148;48.972;12.794;2022-08-07T05:39:15;1.80;;;1.38;;
27758;SDS011;15148;48.972;12.794;2022-08-07T05:44:39;1.77;;;1.50;;
27758;SDS011;15148;48.972;12.794;2022-08-07T05:50:02;1.75;;;1.63;;
27758;SDS011;15148;48.972;12.794;2022-08-07T05:55:06;1.25;;;1.25;;
27758;SDS011;15148;48.972;12.794;2022-08-07T06:00:16;1.48;;;1.23;;
27758;SDS011;15148;48.972;12.794;2022-08-07T06:05:32;1.45;;;1.27;;
27758;SDS011;15148;48.972;12.794;2022-08-07T06:10:42;1.20;;;1.10;;
27758;SDS011;15148;48.972;12.794;2022-08-07T06:15:47;1.60;;;0.90;;
27758;SDS011;15148;48.972;12.794;2022-08-07T06:20:55;1.15;;;0.70;;
27758;SDS011;15148;48.972;12.794;2022-08-07T06:26:17;1.55;;;1.00;;
27758;SDS011;15148;48.972;12.794;2022-08-07T06:31:20;2.35;;;0.95;;
27758;SDS011;15148;48.972;12.794;2022-08-07T06:36:42;0.70;;;0.70;;
27758;SDS011;15148;48.972;12.794;2022-08-07T06:41:45;1.50;;;0.75;;
27758;SDS011;15148;48.972;12.794;2022-08-07T06:47:22;2.20;;;1.35;;
27758;SDS011;15148;48.972;12.794;2022-08-07T06:52:29;2.17;;;1.00;;
27758;SDS011;15148;48.972;12.794;2022-08-07T06:57:38;1.10;;;1.00;;
27758;SDS011;15148;48.972;12.794;2022-08-07T07:02:57;2.00;;;1.80;;
27758;SDS011;15148;48.972;12.794;2022-08-07T07:08:11;1.60;;;0.77;;
27758;SDS011;15148;48.972;12.794;2022-08-07T07:13:21;1.42;;;0.77;;
27758;SDS011;15148;48.972;12.794;2022-08-07T07:19:00;1.05;;;0.70;;
27758;SDS011;15148;48.972;12.794;2022-08-07T07:24:26;2.00;;;1.00;;
27758;SDS011;15148;48.972;12.794;2022-08-07T07:29:33;2.22;;;0.80;;
27758;SDS011;15148;48.972;12.794;2022-08-07T07:35:01;1.05;;;0.82;;
27758;SDS011;15148;48.972;12.794;2022-08-07T07:40:05;0.90;;;0.90;;
27758;SDS011;15148;48.972;12.794;2022-08-07T07:45:15;1.15;;;0.82;;
27758;SDS011;15148;48.972;12.794;2022-08-07T07:50:23;1.15;;;0.85;;
27758;SDS011;15148;48.972;12.794;2022-08-07T07:55:38;1.38;;;1.05;;
27758;SDS011;15148;48.972;12.794;2022-08-07T08:00:54;1.27;;;0.95;;
27758;SDS011;15148;48.972;12.794;2022-08-07T08:05:59;0.73;;;0.73;;
27758;SDS011;15148;48.972;12.794;2022-08-07T08:11:03;1.30;;;1.17;;
27758;SDS011;15148;48.972;12.794;2022-08-07T08:16:11;2.95;;;0.95;;
27758;SDS011;15148;48.972;12.794;2022-08-07T08:21:18;1.02;;;0.88;;
27758;SDS011;15148;48.972;12.794;2022-08-07T08:26:59;2.72;;;0.70;;
27758;SDS011;15148;48.972;12.794;2022-08-07T08:32:10;1.65;;;0.88;;
27758;SDS011;15148;48.972;12.794;2022-08-07T08:37:26;1.45;;;1.35;;
27758;SDS011;15148;48.972;12.794;2022-08-07T08:43:26;0.70;;;0.70;;
27758;SDS011;15148;48.972;12.794;2022-08-07T08:48:34;0.88;;;0.70;;
27758;SDS011;15148;48.972;12.794;2022-08-07T08:54:03;3.17;;;0.90;;
27758;SDS011;15148;48.972;12.794;2022-08-07T09:15:17;2.83;;;1.10;;
27758;SDS011;15148;48.972;12.794;2022-08-07T09:20:58;0.80;;;0.80;;
27758;SDS011;15148;48.972;12.794;2022-08-07T09:26:45;0.85;;;0.80;;
27758;SDS011;15148;48.972;12.794;2022-08-07T09:37:53;0.90;;;0.90;;
27758;SDS011;15148;48.972;12.794;2022-08-07T09:48:25;1.95;;;1.00;;
27758;SDS011;15148;48.972;12.794;2022-08-07T09:54:23;1.75;;;0.85;;
27758;SDS011;15148;48.972;12.794;2022-08-07T10:15:26;1.10;;;0.70;;
27758;SDS011;15148;48.972;12.794;2022-08-07T10:21:01;0.70;;;0.70;;
27758;SDS011;15148;48.972;12.794;2022-08-07T10:37:58;1.67;;;0.93;;
27758;SDS011;15148;48.972;12.794;2022-08-07T10:43:55;1.00;;;0.87;;
27758;SDS011;15148;48.972;12.794;2022-08-07T10:49:09;1.67;;;1.00;;
27758;SDS011;15148;48.972;12.794;2022-08-07T10:54:45;0.73;;;0.73;;
27758;SDS011;15148;48.972;12.794;2022-08-07T11:00:20;1.00;;;1.00;;
27758;SDS011;15148;48.972;12.794;2022-08-07T11:05:53;1.38;;;0.88;;
27758;SDS011;15148;48.972;12.794;2022-08-07T11:11:02;0.85;;;0.85;;
27758;SDS011;15148;48.972;12.794;2022-08-07T11:16:18;1.17;;;0.63;;
27758;SDS011;15148;48.972;12.794;2022-08-07T11:21:38;1.30;;;0.77;;
27758;SDS011;15148;48.972;12.794;2022-08-07T11:26:55;0.88;;;0.80;;
27758;SDS011;15148;48.972;12.794;2022-08-07T11:32:22;1.23;;;0.90;;
27758;SDS011;15148;48.972;12.794;2022-08-07T12:21:38;1.10;;;1.00;;
27758;SDS011;15148;48.972;12.794;2022-08-07T12:27:20;0.80;;;0.80;;
27758;SDS011;15148;48.972;12.794;2022-08-07T12:32:33;1.63;;;1.00;;
27758;SDS011;15148;48.972;12.794;2022-08-07T12:37:40;2.10;;;1.00;;
27758;SDS011;15148;48.972;12.794;2022-08-07T12:43:06;2.80;;;1.52;;
27758;SDS011;15148;48.972;12.794;2022-08-07T12:48:13;1.38;;;0.90;;
27758;SDS011;15148;48.972;12.794;2022-08-07T12:53:42;2.00;;;1.17;;
27758;SDS011;15148;48.972;12.794;2022-08-07T12:59:06;1.70;;;0.70;;
27758;SDS011;15148;48.972;12.794;2022-08-07T13:04:43;1.73;;;1.27;;
27758;SDS011;15148;48.972;12.794;2022-08-07T13:10:07;0.98;;;0.85;;
27758;SDS011;15148;48.972;12.794;2022-08-07T13:15:52;1.52;;;0.95;;
27758;SDS011;15148;48.972;12.794;2022-08-07T13:21:06;1.02;;;0.93;;
27758;SDS011;15148;48.972;12.794;2022-08-07T13:31:44;0.75;;;0.75;;
27758;SDS011;15148;48.972;12.794;2022-08-07T13:37:02;2.70;;;1.63;;
27758;SDS011;15148;48.972;12.794;2022-08-07T13:42:21;5.45;;;4.40;;
27758;SDS011;15148;48.972;12.794;2022-08-07T13:47:26;1.33;;;1.17;;
27758;SDS011;15148;48.972;12.794;2022-08-07T13:52:50;1.13;;;1.02;;
27758;SDS011;15148;48.972;12.794;2022-08-07T13:58:03;1.52;;;1.20;;
27758;SDS011;15148;48.972;12.794;2022-08-07T14:03:32;3.67;;;1.02;;
27758;SDS011;15148;48.972;12.794;2022-08-07T14:09:00;1.48;;;1.13;;
27758;SDS011;15148;48.972;12.794;2022-08-07T14:20:35;1.05;;;1.05;;
27758;SDS011;15148;48.972;12.794;2022-08-07T14:25:53;1.83;;;1.67;;
27758;SDS011;15148;48.972;12.794;2022-08-07T14:30:59;2.20;;;1.10;;
27758;SDS011;15148;48.972;12.794;2022-08-07T14:36:03;1.25;;;1.15;;
27758;SDS011;15148;48.972;12.794;2022-08-07T14:41:09;1.63;;;1.52;;
27758;SDS011;15148;48.972;12.794;2022-08-07T14:46:16;1.50;;;1.40;;
27758;SDS011;15148;48.972;12.794;2022-08-07T14:51:32;3.80;;;1.67;;
27758;SDS011;15148;48.972;12.794;2022-08-07T14:56:55;1.70;;;1.58;;
27758;SDS011;15148;48.972;12.794;2022-08-07T15:02:13;1.93;;;1.60;;
27758;SDS011;15148;48.972;12.794;2022-08-07T15:07:35;1.55;;;1.38;;
27758;SDS011;15148;48.972;12.794;2022-08-07T15:12:54;1.73;;;1.42;;
27758;SDS011;15148;48.972;12.794;2022-08-07T15:18:11;3.10;;;1.60;;
27758;SDS011;15148;48.972;12.794;2022-08-07T15:23:37;2.63;;;1.90;;
27758;SDS011;15148;48.972;12.794;2022-08-07T15:29:03;1.88;;;1.77;;
27758;SDS011;15148;48.972;12.794;2022-08-07T15:34:28;1.85;;;1.60;;
27758;SDS011;15148;48.972;12.794;2022-08-07T15:39:39;3.63;;;1.40;;
27758;SDS011;15148;48.972;12.794;2022-08-07T15:44:58;2.65;;;1.50;;
27758;SDS011;15148;48.972;12.794;2022-08-07T15:50:01;1.52;;;1.42;;
27758;SDS011;15148;48.972;12.794;2022-08-07T15:55:08;3.53;;;2.03;;
27758;SDS011;15148;48.972;12.794;2022-08-07T16:00:13;3.20;;;2.05;;
27758;SDS011;15148;48.972;12.794;2022-08-07T16:05:34;2.38;;;2.17;;
27758;SDS011;15148;48.972;12.794;2022-08-07T16:10:40;2.28;;;2.10;;
27758;SDS011;15148;48.972;12.794;2022-08-07T16:16:02;3.25;;;2.00;;
27758;SDS011;15148;48.972;12.794;2022-08-07T16:21:31;2.08;;;1.90;;
27758;SDS011;15148;48.972;12.794;2022-08-07T16:27:18;2.30;;;2.00;;
27758;SDS011;15148;48.972;12.794;2022-08-07T16:32:26;2.35;;;2.17;;
27758;SDS011;15148;48.972;12.794;2022-08-07T17:00:16;2.42;;;2.22;;
27758;SDS011;15148;48.972;12.794;2022-08-07T17:16:56;2.20;;;2.00;;
27758;SDS011;15148;48.972;12.794;2022-08-07T17:22:18;2.33;;;2.13;;
27758;SDS011;15148;48.972;12.794;2022-08-07T17:33:29;2.20;;;2.00;;
27758;SDS011;15148;48.972;12.794;2022-08-07T17:39:03;6.78;;;3.80;;
27758;SDS011;15148;48.972;12.794;2022-08-07T17:44:20;3.38;;;2.80;;
27758;SDS011;15148;48.972;12.794;2022-08-07T17:49:55;4.57;;;3.90;;
27758;SDS011;15148;48.972;12.794;2022-08-07T17:55:26;2.30;;;2.20;;
27758;SDS011;15148;48.972;12.794;2022-08-07T18:00:49;2.08;;;1.98;;
27758;SDS011;15148;48.972;12.794;2022-08-07T18:06:04;2.58;;;2.30;;
27758;SDS011;15148;48.972;12.794;2022-08-07T18:16:53;2.25;;;2.05;;
27758;SDS011;15148;48.972;12.794;2022-08-07T18:22:06;2.83;;;2.60;;
27758;SDS011;15148;48.972;12.794;2022-08-07T18:33:15;5.90;;;5.03;;
27758;SDS011;15148;48.972;12.794;2022-08-07T18:44:24;2.42;;;2.22;;
27758;SDS011;15148;48.972;12.794;2022-08-07T18:50:09;4.22;;;2.42;;
27758;SDS011;15148;48.972;12.794;2022-08-07T18:55:56;3.72;;;2.92;;
27758;SDS011;15148;48.972;12.794;2022-08-07T19:07:11;3.00;;;2.60;;
27758;SDS011;15148;48.972;12.794;2022-08-07T19:13:07;2.92;;;2.60;;
27758;SDS011;15148;48.972;12.794;2022-08-07T19:18:30;3.65;;;2.78;;
27758;SDS011;15148;48.972;12.794;2022-08-07T19:23:59;7.25;;;2.45;;
27758;SDS011;15148;48.972;12.794;2022-08-07T19:29:03;3.42;;;2.60;;
27758;SDS011;15148;48.972;12.794;2022-08-07T19:34:27;2.97;;;2.70;;
27758;SDS011;15148;48.972;12.794;2022-08-07T19:39:34;3.72;;;2.40;;
27758;SDS011;15148;48.972;12.794;2022-08-07T19:44:58;2.35;;;2.20;;
27758;SDS011;15148;48.972;12.794;2022-08-07T19:50:10;2.53;;;2.33;;
27758;SDS011;15148;48.972;12.794;2022-08-07T19:55:32;3.88;;;2.30;;
27758;SDS011;15148;48.972;12.794;2022-08-07T20:00:54;2.60;;;2.38;;
27758;SDS011;15148;48.972;12.794;2022-08-07T20:05:58;2.60;;;2.20;;
27758;SDS011;15148;48.972;12.794;2022-08-07T20:11:04;2.40;;;2.10;;
27758;SDS011;15148;48.972;12.794;2022-08-07T20:16:11;2.73;;;2.53;;
27758;SDS011;15148;48.972;12.794;2022-08-07T20:21:40;2.40;;;2.20;;
27758;SDS011;15148;48.972;12.794;2022-08-07T20:26:49;2.28;;;2.05;;
27758;SDS011;15148;48.972;12.794;2022-08-07T20:31:55;2.65;;;2.38;;
27758;SDS011;15148;48.972;12.794;2022-08-07T20:37:00;2.78;;;2.30;;
27758;SDS011;15148;48.972;12.794;2022-08-07T20:42:06;3.15;;;2.00;;
27758;SDS011;15148;48.972;12.794;2022-08-07T20:47:12;2.38;;;2.17;;
27758;SDS011;15148;48.972;12.794;2022-08-07T20:52:25;2.50;;;2.15;;
27758;SDS011;15148;48.972;12.794;2022-08-07T20:57:48;2.97;;;2.00;;
27758;SDS011;15148;48.972;12.794;2022-08-07T21:03:04;2.38;;;2.17;;
27758;SDS011;15148;48.972;12.794;2022-08-07T21:08:11;2.25;;;2.15;;
27758;SDS011;15148;48.972;12.794;2022-08-07T21:13:20;3.03;;;2.13;;
27758;SDS011;15148;48.972;12.794;2022-08-07T21:18:25;2.10;;;1.90;;
27758;SDS011;15148;48.972;12.794;2022-08-07T21:23:47;5.63;;;2.20;;
27758;SDS011;15148;48.972;12.794;2022-08-07T21:28:59;2.40;;;2.20;;
27758;SDS011;15148;48.972;12.794;2022-08-07T21:56:35;2.53;;;2.33;;
27758;SDS011;15148;48.972;12.794;2022-08-07T22:01:52;2.28;;;2.08;;
27758;SDS011;15148;48.972;12.794;2022-08-07T22:07:15;2.30;;;1.92;;
27758;SDS011;15148;48.972;12.794;2022-08-07T22:12:25;2.63;;;2.30;;
27758;SDS011;15148;48.972;12.794;2022-08-07T22:17:33;2.85;;;2.10;;
27758;SDS011;15148;48.972;12.794;2022-08-07T22:22:55;2.63;;;1.95;;
27758;SDS011;15148;48.972;12.794;2022-08-07T22:29:06;2.67;;;1.92;;
27758;SDS011;15148;48.972;12.794;2022-08-07T22:33:55;2.13;;;1.92;;
27758;SDS011;15148;48.972;12.794;2022-08-07T22:39:25;1.70;;;1.60;;
27758;SDS011;15148;48.972;12.794;2022-08-07T22:44:55;2.30;;;1.85;;
27758;SDS011;15148;48.972;12.794;2022-08-07T22:55:41;1.88;;;1.77;;
27758;SDS011;15148;48.972;12.794;2022-08-07T23:40:11;2.65;;;2.22;;
27758;SDS011;15148;48.972;12.794;2022-08-07T23:45:25;2.30;;;2.03;;
27758;SDS011;15148;48.972;12.794;2022-08-07T23:56:31;2.70;;;2.50;;
